createdAt,value
2023-02-02T00:01:55.786Z,7.80
2023-02-02T00:04:59.048Z,7.10
2023-02-02T00:08:02.403Z,7.00
2023-02-02T00:11:07.198Z,7.10
2023-02-02T00:14:12.338Z,8.20
2023-02-02T00:17:15.688Z,7.00
2023-02-02T00:20:18.822Z,7.00
2023-02-02T00:23:21.825Z,4.90
2023-02-02T00:26:25.485Z,6.90
2023-02-02T00:29:32.623Z,6.80
2023-02-02T00:32:35.628Z,6.80
2023-02-02T00:35:43.264Z,6.70
2023-02-02T00:38:47.047Z,6.70
2023-02-02T00:41:50.157Z,6.70
2023-02-02T00:45:12.542Z,6.70
2023-02-02T00:48:16.276Z,6.60
2023-02-02T00:51:19.260Z,6.60
2023-02-02T00:54:22.331Z,6.50
2023-02-02T00:57:25.520Z,6.20
2023-02-02T01:00:30.055Z,6.20
2023-02-02T01:03:33.195Z,7.90
2023-02-02T01:06:36.581Z,6.40
2023-02-02T01:09:39.706Z,7.40
2023-02-02T01:12:43.429Z,6.40
2023-02-02T01:15:47.822Z,6.30
2023-02-02T01:18:52.088Z,7.10
2023-02-02T01:21:55.512Z,6.30
2023-02-02T01:24:58.646Z,6.70
2023-02-02T01:28:01.772Z,6.30
2023-02-02T01:31:11.562Z,6.30
2023-02-02T01:34:23.646Z,6.30
2023-02-02T01:37:26.660Z,6.20
2023-02-02T01:40:29.698Z,6.20
2023-02-02T01:43:55.016Z,6.30
2023-02-02T01:46:59.600Z,4.20
2023-02-02T01:50:04.260Z,6.10
2023-02-02T01:53:09.531Z,6.20
2023-02-02T01:56:29.483Z,6.20
2023-02-02T01:59:34.126Z,6.20
2023-02-02T02:02:40.706Z,6.20
2023-02-02T02:05:52.543Z,6.20
2023-02-02T02:09:00.319Z,6.30
2023-02-02T02:12:03.404Z,6.10
2023-02-02T02:15:25.965Z,6.10
2023-02-02T02:18:51.770Z,6.10
2023-02-02T02:22:21.497Z,6.10
2023-02-02T02:26:11.384Z,6.00
2023-02-02T02:30:02.037Z,7.10
2023-02-02T02:33:12.319Z,6.10
2023-02-02T02:36:27.005Z,6.00
2023-02-02T02:39:40.019Z,7.70
2023-02-02T02:42:49.823Z,6.00
2023-02-02T02:45:54.534Z,6.00
2023-02-02T02:49:02.107Z,6.00
2023-02-02T02:52:05.255Z,7.60
2023-02-02T03:04:55.832Z,5.90
2023-02-02T03:08:11.348Z,5.80
2023-02-02T03:11:16.703Z,5.50
2023-02-02T04:21:55.954Z,4.70
2023-02-02T05:23:21.602Z,4.80
2023-02-02T08:13:02.905Z,4.20
2023-02-02T08:16:06.996Z,4.10
2023-02-02T08:59:08.471Z,4.70
2023-02-02T09:02:13.783Z,7.80
2023-02-02T09:23:42.195Z,7.40
2023-02-02T09:26:46.650Z,5.10
2023-02-02T09:29:52.977Z,5.20
2023-02-02T09:32:56.073Z,5.20
2023-02-02T09:36:06.601Z,7.30
2023-02-02T09:39:12.670Z,4.60
2023-02-02T09:42:42.952Z,5.40
2023-02-02T09:46:01.117Z,6.10
2023-02-02T09:49:12.474Z,5.50
2023-02-02T09:52:22.876Z,6.30
2023-02-02T09:55:34.872Z,5.60
2023-02-02T09:58:48.574Z,5.60
2023-02-02T10:01:58.988Z,6.00
2023-02-02T10:05:11.144Z,5.70
2023-02-02T10:08:34.680Z,5.80
2023-02-02T10:11:47.233Z,5.80
2023-02-02T10:14:58.974Z,5.90
2023-02-02T10:18:14.906Z,6.00
2023-02-02T10:21:33.053Z,6.00
2023-02-02T10:24:37.120Z,6.00
2023-02-02T10:27:42.946Z,6.10
2023-02-02T10:30:55.049Z,6.10
2023-02-02T10:34:10.726Z,6.10
2023-02-02T10:37:28.091Z,6.20
2023-02-02T10:40:49.970Z,6.80
2023-02-02T10:44:14.949Z,6.30
2023-02-02T10:47:28.626Z,5.00
2023-02-02T10:50:33.048Z,6.30
2023-02-02T10:53:36.295Z,6.40
2023-02-02T10:56:52.485Z,6.40
2023-02-02T11:00:06.537Z,6.20
2023-02-02T11:03:14.370Z,7.70
2023-02-02T11:06:36.633Z,6.60
2023-02-02T11:09:43.704Z,6.70
2023-02-02T11:12:52.946Z,8.10
2023-02-02T11:16:22.577Z,6.90
2023-02-02T11:19:31.188Z,7.60
2023-02-02T11:22:39.499Z,6.90
2023-02-02T11:25:43.961Z,6.90
2023-02-02T11:28:50.873Z,7.00
2023-02-02T11:31:54.123Z,9.00
2023-02-02T11:35:21.597Z,5.60
2023-02-02T11:38:27.441Z,7.00
2023-02-02T11:41:32.930Z,7.10
2023-02-02T11:44:42.777Z,7.10
2023-02-02T11:47:47.385Z,7.20
2023-02-02T11:50:54.610Z,7.20
2023-02-02T11:54:07.667Z,7.20
2023-02-02T11:57:11.677Z,7.20
2023-02-02T12:00:26.985Z,7.20
2023-02-02T12:03:36.794Z,7.30
2023-02-02T12:06:40.876Z,7.30
2023-02-02T12:09:45.243Z,7.30
2023-02-02T12:12:59.833Z,8.30
2023-02-02T12:16:18.675Z,7.40
2023-02-02T12:19:50.571Z,7.40
2023-02-02T12:23:30.282Z,7.40
2023-02-02T12:26:38.993Z,7.40
2023-02-02T12:30:19.143Z,7.30
2023-02-02T12:33:32.579Z,7.30
2023-02-02T12:36:51.156Z,7.30
2023-02-02T12:40:16.295Z,7.30
2023-02-02T12:43:35.405Z,7.20
2023-02-02T12:47:08.773Z,7.20
2023-02-02T12:50:31.523Z,7.10
2023-02-02T12:54:33.815Z,7.10
2023-02-02T12:57:37.342Z,7.10
2023-02-02T13:01:45.712Z,7.00
2023-02-02T13:05:12.665Z,7.00
2023-02-02T13:08:22.548Z,7.00
2023-02-02T13:11:38.537Z,6.70
2023-02-02T13:14:47.788Z,6.80
2023-02-02T13:17:56.746Z,6.80
2023-02-02T13:21:06.562Z,8.90
2023-02-02T13:24:19.253Z,6.70
2023-02-02T13:27:24.872Z,5.90
2023-02-02T13:30:35.364Z,6.70
2023-02-02T13:33:44.684Z,6.80
2023-02-02T13:36:54.194Z,6.80
2023-02-02T13:40:02.444Z,6.80
2023-02-02T13:43:25.763Z,6.80
2023-02-02T13:46:40.784Z,6.70
2023-02-02T13:49:52.142Z,8.20
2023-02-02T13:53:19.509Z,6.60
2023-02-02T13:56:45.646Z,7.50
2023-02-02T14:00:05.278Z,6.30
2023-02-02T14:03:33.603Z,6.60
2023-02-02T14:06:59.104Z,6.60
2023-02-02T14:10:04.318Z,6.60
2023-02-02T14:13:34.994Z,6.60
2023-02-02T14:16:52.270Z,6.60
2023-02-02T14:19:57.848Z,5.70
2023-02-02T14:23:02.586Z,6.80
2023-02-02T14:26:09.437Z,6.90
2023-02-02T14:29:59.836Z,6.60
2023-02-02T14:33:28.249Z,6.00
2023-02-02T14:36:32.416Z,6.10
2023-02-02T14:39:40.441Z,6.70
2023-02-02T14:43:21.030Z,6.60
2023-02-02T14:46:35.567Z,8.30
2023-02-02T14:49:38.998Z,6.70
2023-02-02T14:52:42.528Z,6.60
2023-02-02T14:56:02.056Z,6.60
2023-02-02T14:59:07.382Z,6.60
2023-02-02T15:02:19.948Z,6.50
2023-02-02T15:05:46.365Z,7.00
2023-02-02T15:09:41.968Z,6.40
2023-02-02T15:12:47.684Z,6.40
2023-02-02T15:16:04.449Z,6.30
2023-02-02T15:19:21.484Z,4.00
2023-02-02T15:22:33.156Z,6.10
2023-02-02T15:25:44.690Z,6.00
2023-02-02T15:28:57.177Z,5.80
2023-02-02T15:32:02.237Z,5.80
2023-02-02T15:35:15.994Z,7.90
2023-02-02T15:38:22.544Z,5.70
2023-02-02T15:41:33.114Z,3.90
2023-02-02T15:44:39.304Z,6.60
2023-02-02T15:47:43.449Z,5.50
2023-02-02T15:50:47.649Z,5.40
2023-02-02T15:53:54.690Z,5.40
2023-02-02T15:57:01.131Z,5.30
2023-02-02T16:00:28.054Z,5.30
2023-02-02T16:03:44.133Z,5.30
2023-02-02T16:06:48.201Z,5.20
2023-02-02T16:09:51.381Z,5.10
2023-02-02T16:12:55.246Z,6.80
2023-02-02T16:16:03.972Z,5.90
2023-02-02T16:19:16.494Z,5.50
2023-02-02T16:22:25.395Z,6.20
2023-02-02T16:25:31.811Z,5.10
2023-02-02T16:28:36.361Z,3.10
2023-02-02T16:31:41.036Z,5.10
2023-02-02T16:34:47.246Z,5.00
2023-02-02T16:37:50.531Z,5.10
2023-02-02T16:41:07.834Z,5.00
2023-02-02T16:44:32.586Z,4.90
2023-02-02T16:47:40.177Z,4.90
2023-02-02T16:51:03.470Z,4.90
2023-02-02T16:54:20.860Z,4.80
2023-02-02T16:57:29.249Z,5.50
2023-02-02T17:00:33.719Z,5.10
2023-02-02T17:03:52.538Z,4.80
2023-02-02T17:06:58.861Z,4.80
2023-02-02T17:10:23.995Z,3.30
2023-02-02T17:13:41.974Z,4.80
2023-02-02T17:16:45.336Z,5.70
2023-02-02T17:19:49.722Z,4.80
2023-02-02T17:22:56.722Z,6.50
2023-02-02T17:26:00.992Z,4.70
2023-02-02T17:29:07.026Z,4.70
2023-02-02T17:32:14.148Z,4.70
2023-02-02T17:35:37.148Z,4.70
2023-02-02T17:38:46.854Z,4.60
2023-02-02T17:41:51.385Z,3.50
2023-02-02T17:44:55.035Z,4.60
2023-02-02T17:47:58.452Z,4.60
2023-02-02T17:51:07.342Z,6.30
2023-02-02T17:54:15.983Z,4.50
2023-02-02T17:57:20.027Z,4.50
2023-02-02T18:00:25.778Z,4.50
2023-02-02T18:03:34.450Z,4.50
2023-02-02T18:06:38.969Z,6.30
2023-02-02T18:09:42.611Z,4.40
2023-02-02T18:12:45.889Z,4.40
2023-02-02T18:15:50.227Z,4.40
2023-02-02T18:18:54.352Z,4.40
2023-02-02T18:21:58.612Z,4.10
2023-02-02T18:25:01.706Z,2.80
2023-02-02T18:28:05.279Z,4.30
2023-02-02T18:31:10.681Z,4.20
2023-02-02T18:34:14.069Z,5.30
2023-02-02T18:37:18.552Z,4.20
2023-02-02T18:40:23.765Z,4.10
2023-02-02T18:43:27.490Z,4.20
2023-02-02T18:46:33.822Z,4.10
2023-02-02T18:49:38.597Z,4.40
2023-02-02T18:52:43.312Z,4.20
2023-02-02T18:55:47.184Z,4.10
2023-02-02T18:58:59.742Z,4.20
2023-02-02T19:02:04.007Z,4.10
2023-02-02T19:05:26.792Z,6.20
2023-02-02T19:08:33.568Z,4.10
2023-02-02T19:11:42.917Z,3.60
2023-02-02T19:14:46.685Z,4.60
2023-02-02T19:17:52.860Z,4.00
2023-02-02T19:20:55.995Z,4.00
2023-02-02T19:24:01.143Z,4.00
2023-02-02T19:27:15.652Z,4.00
2023-02-02T19:30:23.158Z,3.90
2023-02-02T19:33:41.420Z,4.00
2023-02-02T19:36:46.205Z,4.30
2023-02-02T19:39:51.027Z,3.90
2023-02-02T19:43:00.624Z,3.90
2023-02-02T19:46:10.687Z,2.90
2023-02-02T19:49:19.507Z,3.90
2023-02-02T19:52:26.855Z,3.90
2023-02-02T19:55:37.363Z,5.90
2023-02-02T19:58:40.823Z,3.90
2023-02-02T20:01:45.898Z,3.90
2023-02-02T20:04:59.670Z,3.90
2023-02-02T20:08:09.295Z,5.10
2023-02-02T20:11:32.155Z,4.30
2023-02-02T20:14:36.829Z,3.90
2023-02-02T20:17:41.799Z,5.30
2023-02-02T20:20:50.037Z,5.80
2023-02-02T20:23:53.310Z,3.90
2023-02-02T20:27:06.122Z,3.90
2023-02-02T20:30:25.599Z,3.90
2023-02-02T20:33:29.294Z,3.90
2023-02-02T20:36:41.789Z,4.50
2023-02-02T20:39:49.858Z,4.40
2023-02-02T20:42:54.410Z,3.90
2023-02-02T20:45:58.352Z,3.90
2023-02-02T20:52:23.841Z,4.00
2023-02-02T20:55:28.230Z,4.00
2023-02-02T20:58:32.702Z,4.00
2023-02-02T21:01:36.094Z,5.50
2023-02-02T21:04:39.120Z,4.10
2023-02-02T21:07:45.039Z,4.50
2023-02-02T21:10:50.548Z,4.10
2023-02-02T21:13:56.104Z,4.20
2023-02-02T21:17:14.004Z,4.20
2023-02-02T21:20:25.257Z,4.30
2023-02-02T21:23:30.460Z,4.30
2023-02-02T21:26:33.995Z,4.90
2023-02-02T21:29:39.421Z,4.40
2023-02-02T21:32:58.863Z,4.40
2023-02-02T21:36:31.061Z,5.70
2023-02-02T21:39:40.306Z,4.60
2023-02-02T21:42:52.624Z,4.70
2023-02-02T21:46:02.341Z,4.80
2023-02-02T21:49:21.772Z,4.70
2023-02-02T21:52:26.834Z,3.60
2023-02-02T21:55:36.754Z,4.80
2023-02-02T21:58:40.861Z,4.90
2023-02-02T22:01:47.073Z,4.90
2023-02-02T22:04:50.331Z,4.90
2023-02-02T22:07:58.480Z,5.00
2023-02-02T22:14:19.915Z,5.10
2023-02-02T22:17:27.694Z,5.10
2023-02-02T22:20:35.871Z,5.10
2023-02-02T22:23:40.830Z,5.20
2023-02-02T22:26:44.225Z,5.80
2023-02-02T22:29:47.504Z,3.10
2023-02-02T22:32:52.194Z,5.30
2023-02-02T22:35:57.600Z,5.30
2023-02-02T22:39:03.743Z,5.40
2023-02-02T22:42:08.304Z,5.40
2023-02-02T22:45:14.675Z,5.40
2023-02-02T22:48:24.021Z,5.50
2023-02-02T22:51:28.540Z,5.50
2023-02-02T22:54:32.039Z,5.50
2023-02-02T23:03:44.237Z,5.80
2023-02-02T23:06:47.602Z,3.50
2023-02-02T23:16:02.302Z,5.90
2023-02-02T23:19:06.949Z,5.90
2023-02-02T23:22:10.125Z,5.80
2023-02-02T23:25:14.449Z,5.80
2023-02-02T23:28:17.562Z,5.80
2023-02-02T23:31:20.880Z,5.80
2023-02-02T23:34:25.437Z,5.80
2023-02-02T23:37:28.696Z,4.30
2023-02-02T23:40:31.861Z,5.80
2023-02-02T23:43:35.318Z,5.90
2023-02-02T23:46:39.800Z,5.90
2023-02-02T23:49:44.785Z,5.90
2023-02-02T23:52:47.888Z,5.90
2023-02-02T23:55:51.056Z,5.90
2023-02-02T23:58:54.234Z,6.50
